Terminal Aerodrome Forecast
Issued by NWS Boston, MA

Home | Current Version | Previous Version | Text Only | Print | Product List | Glossary On
Versions: 1 2 3 4 5 6 7 8 9 10 11 12 13 14 15 16 17 18 19 20 21 22 23 24 25 26 27 28 29 30 31 32 33 34 35 36 37 38
319
FTUS41 KBOX 251307 AAA
TAFORH
TAF AMD
KORH 251307Z 2513/2612 19009KT 1/4SM FG OVC002
     FM251430 18007KT P6SM BKN005
     FM251900 17009KT P6SM BKN025
     FM260200 24009KT 2SM -SHRA BR OVC015
     FM260400 27011G24KT 4SM BR VCSH BKN020
     FM260600 29014G26KT P6SM SCT200=

USA.gov is the U.S. government's official web portal to all federal, state and local government web resources and services.